Time;durP1;ratioP1;P1;durP2;ratioP2;P2;SDS_P1;SDS_P2;PMS_P1;PMS_P2;Temp;Humidity;BMP_temperature;BMP_pressure;BME280_temperature;BME280_humidity;BME280_pressure;Samples;Min_cycle;Max_cycle;Signal;HPM_P1;HPM_P2
2022/04/08 00:01:44;;;;;;;43.13;31.75;;;;;;;;;;4954851;28;20039;-70
2022/04/08 00:04:15;;;;;;;45.00;32.22;;;;;;;;;;4955027;28;20043;-70
2022/04/08 00:07:07;;;;;;;44.85;31.08;;;;;;;;;;4954873;28;20063;-69
2022/04/08 00:09:35;;;;;;;42.85;30.60;;;;;;;;;;4955164;28;20118;-69
2022/04/08 00:12:04;;;;;;;42.83;30.33;;;;;;;;;;4954673;28;20052;-69
2022/04/08 00:14:37;;;;;;;42.28;29.75;;;;;;;;;;4955181;28;20046;-69
2022/04/08 00:17:07;;;;;;;40.25;29.88;;;;;;;;;;4954903;28;20502;-69
2022/04/08 00:19:37;;;;;;;36.78;27.75;;;;;;;;;;4955024;28;20039;-69
2022/04/08 00:22:06;;;;;;;36.38;27.75;;;;;;;;;;4955039;28;20043;-69
2022/04/08 00:24:34;;;;;;;37.20;27.70;;;;;;;;;;4955296;28;20402;-69
2022/04/08 00:27:04;;;;;;;33.80;25.88;;;;;;;;;;4955111;28;20466;-69
2022/04/08 00:29:34;;;;;;;32.80;25.42;;;;;;;;;;4954930;28;20044;-69
2022/04/08 00:32:05;;;;;;;34.33;25.67;;;;;;;;;;4953673;28;20053;-69
2022/04/08 00:34:34;;;;;;;30.42;24.48;;;;;;;;;;4954600;28;20059;-69
2022/04/08 00:37:03;;;;;;;34.05;24.15;;;;;;;;;;4955140;28;20059;-69
2022/04/08 00:39:32;;;;;;;31.15;23.15;;;;;;;;;;4955171;28;20044;-69
2022/04/08 00:42:03;;;;;;;28.80;22.83;;;;;;;;;;4969665;28;20043;-69
2022/04/08 00:44:35;;;;;;;32.15;23.15;;;;;;;;;;4955121;28;20046;-69
2022/04/08 00:47:04;;;;;;;28.58;22.38;;;;;;;;;;4955033;28;20106;-69
2022/04/08 00:49:37;;;;;;;27.73;22.35;;;;;;;;;;4954613;28;20565;-70
2022/04/08 00:52:16;;;;;;;31.70;22.13;;;;;;;;;;4954821;28;20066;-69
2022/04/08 00:54:45;;;;;;;27.48;22.20;;;;;;;;;;4955011;28;20388;-69
2022/04/08 00:57:12;;;;;;;28.30;21.67;;;;;;;;;;4954550;28;20042;-70
2022/04/08 00:59:47;;;;;;;27.95;21.65;;;;;;;;;;4954480;28;20055;-69
2022/04/08 01:02:15;;;;;;;31.60;21.10;;;;;;;;;;4954888;28;20039;-69
2022/04/08 01:04:44;;;;;;;27.30;20.98;;;;;;;;;;4957525;28;20356;-69
2022/04/08 01:07:14;;;;;;;29.75;21.48;;;;;;;;;;4958168;28;20039;-69
2022/04/08 01:10:06;;;;;;;26.35;20.77;;;;;;;;;;4957964;28;20398;-69
2022/04/08 01:12:35;;;;;;;31.15;22.60;;;;;;;;;;4957812;28;20146;-69
2022/04/08 01:15:09;;;;;;;30.33;21.45;;;;;;;;;;4958184;28;20039;-69
2022/04/08 01:17:39;;;;;;;33.30;21.73;;;;;;;;;;4957714;28;20055;-69
2022/04/08 01:20:08;;;;;;;27.50;21.75;;;;;;;;;;4958189;28;20129;-69
2022/04/08 01:22:37;;;;;;;33.10;22.42;;;;;;;;;;4957557;28;20058;-69
2022/04/08 01:25:07;;;;;;;36.33;22.38;;;;;;;;;;4957779;28;20508;-69
2022/04/08 01:27:35;;;;;;;28.98;22.33;;;;;;;;;;4957539;28;20043;-69
2022/04/08 01:30:07;;;;;;;30.45;21.80;;;;;;;;;;4957471;28;20403;-69
2022/04/08 01:32:37;;;;;;;30.63;22.42;;;;;;;;;;4957271;28;20126;-69
2022/04/08 01:35:05;;;;;;;31.15;23.30;;;;;;;;;;4957434;28;20188;-69
2022/04/08 01:37:33;;;;;;;32.80;21.80;;;;;;;;;;4957537;28;20436;-69
2022/04/08 01:40:26;;;;;;;32.35;22.75;;;;;;;;;;4957700;28;20447;-69
2022/04/08 01:43:20;;;;;;;30.13;21.75;;;;;;;;;;4957473;28;20469;-69
2022/04/08 01:46:18;;;;;;;31.60;23.05;;;;;;;;;;4957380;28;20043;-69
2022/04/08 01:48:47;;;;;;;30.63;22.77;;;;;;;;;;4957455;28;20110;-69
2022/04/08 01:51:24;;;;;;;31.65;22.77;;;;;;;;;;4956886;28;20038;-69
2022/04/08 01:53:52;;;;;;;31.10;21.85;;;;;;;;;;4957440;28;20375;-68
2022/04/08 01:56:21;;;;;;;31.77;22.40;;;;;;;;;;4957455;28;20046;-69
2022/04/08 01:58:53;;;;;;;33.10;23.38;;;;;;;;;;4956799;28;20101;-69
2022/04/08 02:01:26;;;;;;;35.10;23.33;;;;;;;;;;4957092;28;20047;-69
2022/04/08 02:03:58;;;;;;;30.60;21.98;;;;;;;;;;4957042;28;20447;-69
2022/04/08 02:06:27;;;;;;;33.85;22.60;;;;;;;;;;4957004;28;20565;-69
2022/04/08 02:08:57;;;;;;;29.88;22.40;;;;;;;;;;4957001;28;20039;-69
2022/04/08 02:11:25;;;;;;;31.73;22.73;;;;;;;;;;4956773;29;20047;-69
2022/04/08 02:13:55;;;;;;;29.75;22.08;;;;;;;;;;4956873;28;20032;-69
2022/04/08 02:16:28;;;;;;;28.05;22.23;;;;;;;;;;4956271;28;20043;-69
2022/04/08 02:18:59;;;;;;;30.00;23.23;;;;;;;;;;4956529;28;20046;-69
2022/04/08 02:21:29;;;;;;;33.88;22.88;;;;;;;;;;4957076;28;20069;-69
2022/04/08 02:23:58;;;;;;;31.92;23.17;;;;;;;;;;4956567;28;20050;-68
2022/04/08 02:26:30;;;;;;;31.80;22.83;;;;;;;;;;4956863;28;20043;-69
2022/04/08 02:29:11;;;;;;;31.65;21.80;;;;;;;;;;4956671;28;20114;-69
2022/04/08 02:31:39;;;;;;;28.77;21.00;;;;;;;;;;4957154;28;20526;-68
2022/04/08 02:34:06;;;;;;;28.90;21.58;;;;;;;;;;4955694;28;20110;-69
2022/04/08 02:36:59;;;;;;;29.13;20.92;;;;;;;;;;4956522;28;20066;-68
2022/04/08 02:39:31;;;;;;;29.55;21.20;;;;;;;;;;4956401;28;20082;-69
2022/04/08 02:42:01;;;;;;;29.00;20.63;;;;;;;;;;4956411;28;20454;-69
2022/04/08 02:44:34;;;;;;;29.40;21.70;;;;;;;;;;4956342;28;20055;-69
2022/04/08 02:47:02;;;;;;;29.63;21.88;;;;;;;;;;4956506;28;20040;-69
2022/04/08 02:49:34;;;;;;;31.42;22.27;;;;;;;;;;4956460;28;20039;-68
2022/04/08 02:52:06;;;;;;;29.83;22.13;;;;;;;;;;4955931;28;20075;-69
2022/04/08 02:54:35;;;;;;;30.27;21.92;;;;;;;;;;4955967;28;20074;-69
2022/04/08 02:57:04;;;;;;;29.73;21.90;;;;;;;;;;4956133;28;20047;-69
2022/04/08 02:59:36;;;;;;;29.63;21.98;;;;;;;;;;4955895;28;20088;-69
2022/04/08 03:02:06;;;;;;;31.75;23.23;;;;;;;;;;4956063;28;20122;-69
2022/04/08 03:04:35;;;;;;;32.25;22.27;;;;;;;;;;4956239;28;20047;-69
2022/04/08 03:07:06;;;;;;;33.42;22.75;;;;;;;;;;4956040;28;20399;-69
2022/04/08 03:09:34;;;;;;;34.63;22.83;;;;;;;;;;4955759;28;20043;-69
2022/04/08 03:12:06;;;;;;;33.08;22.85;;;;;;;;;;4955809;28;20561;-68
2022/04/08 03:14:38;;;;;;;31.45;22.33;;;;;;;;;;4956562;28;20434;-68
2022/04/08 03:17:05;;;;;;;30.60;22.52;;;;;;;;;;4955932;28;20146;-68
2022/04/08 03:19:35;;;;;;;28.95;22.55;;;;;;;;;;4955513;28;20047;-69
2022/04/08 03:22:07;;;;;;;31.75;23.60;;;;;;;;;;4955922;28;20098;-68
2022/04/08 03:24:37;;;;;;;34.40;22.48;;;;;;;;;;4955897;28;20125;-69
2022/04/08 03:27:05;;;;;;;30.40;22.02;;;;;;;;;;4955300;28;20043;-69
2022/04/08 03:29:41;;;;;;;29.90;22.30;;;;;;;;;;4955494;28;20036;-69
2022/04/08 03:32:15;;;;;;;29.95;22.38;;;;;;;;;;4955469;28;20063;-68
2022/04/08 03:34:43;;;;;;;30.77;22.95;;;;;;;;;;4954984;28;20079;-68
2022/04/08 03:37:16;;;;;;;31.55;22.27;;;;;;;;;;4955398;28;20502;-69
2022/04/08 03:39:46;;;;;;;31.35;22.13;;;;;;;;;;4955462;28;20039;-68
2022/04/08 03:42:13;;;;;;;33.88;22.33;;;;;;;;;;4955480;28;20046;-68
2022/04/08 03:44:46;;;;;;;35.25;23.33;;;;;;;;;;4955415;28;20505;-69
2022/04/08 03:47:16;;;;;;;33.72;22.05;;;;;;;;;;4955327;28;20051;-69
2022/04/08 03:49:44;;;;;;;30.50;21.85;;;;;;;;;;4955240;28;20048;-69
2022/04/08 03:52:19;;;;;;;32.40;23.15;;;;;;;;;;4955734;28;20043;-69
2022/04/08 03:54:50;;;;;;;32.23;22.33;;;;;;;;;;4954991;28;20406;-69
2022/04/08 03:57:18;;;;;;;30.83;21.45;;;;;;;;;;4955241;28;20656;-68
2022/04/08 03:59:49;;;;;;;32.85;23.08;;;;;;;;;;4950081;28;20474;-68
2022/04/08 04:02:23;;;;;;;28.17;21.00;;;;;;;;;;4935755;29;20099;-69
2022/04/08 04:04:55;;;;;;;29.27;22.02;;;;;;;;;;4936172;29;20051;-68
2022/04/08 04:07:27;;;;;;;29.75;19.92;;;;;;;;;;4936238;29;20059;-68
2022/04/08 04:09:59;;;;;;;28.75;20.65;;;;;;;;;;4936053;29;20076;-68
2022/04/08 04:12:28;;;;;;;29.73;20.73;;;;;;;;;;4936158;29;20039;-68
2022/04/08 04:14:58;;;;;;;29.00;20.30;;;;;;;;;;4935944;29;20036;-68
2022/04/08 04:17:29;;;;;;;27.05;19.10;;;;;;;;;;4935521;29;20118;-68
2022/04/08 04:19:58;;;;;;;24.15;19.08;;;;;;;;;;4935700;29;20090;-69
2022/04/08 04:22:30;;;;;;;25.98;19.00;;;;;;;;;;4936383;29;20406;-69
2022/04/08 04:25:07;;;;;;;29.20;19.65;;;;;;;;;;4935769;29;20055;-69
2022/04/08 04:27:35;;;;;;;24.13;19.25;;;;;;;;;;4934555;29;20135;-69
2022/04/08 04:30:11;;;;;;;26.45;19.40;;;;;;;;;;4934878;29;20035;-69
2022/04/08 04:32:40;;;;;;;20.27;16.52;;;;;;;;;;4934389;29;20074;-69
2022/04/08 04:35:09;;;;;;;23.98;17.73;;;;;;;;;;4935443;29;20052;-69
2022/04/08 04:37:46;;;;;;;21.65;16.58;;;;;;;;;;4935522;29;20052;-69
2022/04/08 04:40:18;;;;;;;19.77;16.27;;;;;;;;;;4939171;29;20118;-69
2022/04/08 04:42:46;;;;;;;20.75;15.60;;;;;;;;;;4939137;29;20048;-69
2022/04/08 04:45:15;;;;;;;23.60;15.13;;;;;;;;;;4939077;29;20054;-69
2022/04/08 04:47:43;;;;;;;18.98;14.77;;;;;;;;;;4939029;29;20127;-69
2022/04/08 04:50:13;;;;;;;19.45;14.10;;;;;;;;;;4939197;28;20040;-69
2022/04/08 04:52:40;;;;;;;16.30;13.05;;;;;;;;;;4939114;29;20558;-69
2022/04/08 04:55:13;;;;;;;18.05;12.90;;;;;;;;;;4939256;29;20074;-69
2022/04/08 04:58:08;;;;;;;22.67;13.48;;;;;;;;;;4939171;29;20099;-69
2022/04/08 05:00:35;;;;;;;22.45;14.15;;;;;;;;;;4938999;29;20072;-69
2022/04/08 05:07:00;;;;;;;19.17;12.77;;;;;;;;;;4938945;29;20030;-69
2022/04/08 05:09:52;;;;;;;17.33;12.48;;;;;;;;;;4938422;29;20070;-69
2022/04/08 05:12:21;;;;;;;20.98;13.75;;;;;;;;;;4938827;29;20071;-69
2022/04/08 05:14:55;;;;;;;16.15;12.25;;;;;;;;;;4938645;29;20044;-69
2022/04/08 05:17:48;;;;;;;16.13;11.93;;;;;;;;;;4938682;29;20091;-69
2022/04/08 05:20:20;;;;;;;17.30;11.23;;;;;;;;;;4938532;29;20841;-69
2022/04/08 05:22:48;;;;;;;19.98;13.57;;;;;;;;;;4938766;29;20044;-69
2022/04/08 05:25:41;;;;;;;12.23;9.00;;;;;;;;;;4938608;29;20038;-70
2022/04/08 05:28:11;;;;;;;11.32;8.75;;;;;;;;;;4938482;29;20055;-67
2022/04/08 05:30:53;;;;;;;10.30;8.32;;;;;;;;;;4938513;29;20095;-67
2022/04/08 05:33:21;;;;;;;10.73;8.50;;;;;;;;;;4936809;29;20047;-68
2022/04/08 05:35:56;;;;;;;12.95;8.77;;;;;;;;;;4938776;28;20395;-69
2022/04/08 05:38:24;;;;;;;11.88;8.25;;;;;;;;;;4938473;29;20050;-69
2022/04/08 05:40:52;;;;;;;10.95;8.68;;;;;;;;;;4938389;29;20075;-67
2022/04/08 05:43:46;;;;;;;11.27;8.75;;;;;;;;;;4938219;29;20047;-67
2022/04/08 05:46:15;;;;;;;12.20;8.20;;;;;;;;;;4937997;29;20047;-67
2022/04/08 05:48:43;;;;;;;12.77;8.82;;;;;;;;;;4937490;29;20103;-67
2022/04/08 05:51:10;;;;;;;11.80;8.55;;;;;;;;;;4937777;28;20507;-67
2022/04/08 05:54:03;;;;;;;8.88;7.95;;;;;;;;;;4938090;29;20115;-68
2022/04/08 05:56:32;;;;;;;12.68;7.88;;;;;;;;;;4938210;29;20079;-67
2022/04/08 05:59:09;;;;;;;9.18;7.18;;;;;;;;;;4938097;29;20048;-67
2022/04/08 06:01:36;;;;;;;12.18;7.65;;;;;;;;;;4938268;29;20142;-67
2022/04/08 06:04:10;;;;;;;8.10;6.85;;;;;;;;;;4937775;29;20059;-69
2022/04/08 06:06:43;;;;;;;11.73;8.25;;;;;;;;;;4938078;29;20032;-70
2022/04/08 06:09:10;;;;;;;9.15;7.93;;;;;;;;;;4938242;29;20079;-70
2022/04/08 06:12:03;;;;;;;10.93;7.50;;;;;;;;;;4937503;29;20044;-69
2022/04/08 06:14:56;;;;;;;13.05;8.35;;;;;;;;;;4938044;29;20411;-70
2022/04/08 06:17:34;;;;;;;9.07;7.22;;;;;;;;;;4937709;29;20059;-69
2022/04/08 06:20:02;;;;;;;10.40;7.43;;;;;;;;;;4938140;29;20036;-69
2022/04/08 06:22:30;;;;;;;8.93;6.70;;;;;;;;;;4937713;29;20039;-69
2022/04/08 06:25:04;;;;;;;14.50;7.95;;;;;;;;;;4937235;29;20079;-67
2022/04/08 06:27:46;;;;;;;9.45;6.57;;;;;;;;;;4937387;29;20043;-67
2022/04/08 06:30:15;;;;;;;9.35;6.90;;;;;;;;;;4937227;29;20119;-67
2022/04/08 06:32:44;;;;;;;9.93;6.68;;;;;;;;;;4937017;29;20122;-69
2022/04/08 06:35:14;;;;;;;10.35;6.70;;;;;;;;;;4937122;29;20079;-69
2022/04/08 06:37:41;;;;;;;9.48;5.72;;;;;;;;;;4937465;29;20127;-69
2022/04/08 06:40:10;;;;;;;11.68;6.72;;;;;;;;;;4937017;29;20044;-69
2022/04/08 06:42:41;;;;;;;11.20;5.88;;;;;;;;;;4937236;29;20047;-69
2022/04/08 06:45:09;;;;;;;7.32;5.47;;;;;;;;;;4937117;29;20044;-68
2022/04/08 06:47:47;;;;;;;8.32;5.88;;;;;;;;;;4937005;29;20043;-68
2022/04/08 06:50:17;;;;;;;9.85;5.88;;;;;;;;;;4936975;29;20110;-68
2022/04/08 06:52:49;;;;;;;6.40;5.70;;;;;;;;;;4937215;29;20118;-68
2022/04/08 06:55:18;;;;;;;8.25;5.65;;;;;;;;;;4937179;29;20459;-67
2022/04/08 06:57:47;;;;;;;10.35;5.13;;;;;;;;;;4936898;29;20053;-68
2022/04/08 07:00:18;;;;;;;8.50;5.47;;;;;;;;;;4936539;29;20555;-70
2022/04/08 07:02:48;;;;;;;9.68;5.80;;;;;;;;;;4936508;29;20071;-69
2022/04/08 07:05:18;;;;;;;6.32;4.57;;;;;;;;;;4936668;29;20050;-69
2022/04/08 07:07:51;;;;;;;7.80;4.63;;;;;;;;;;4937074;28;20406;-69
2022/04/08 07:10:44;;;;;;;9.18;4.40;;;;;;;;;;4936799;28;20514;-69
2022/04/08 07:13:12;;;;;;;7.82;4.70;;;;;;;;;;4936740;29;20448;-69
2022/04/08 07:15:41;;;;;;;6.82;4.40;;;;;;;;;;4935951;28;20057;-69
2022/04/08 07:18:16;;;;;;;9.07;4.95;;;;;;;;;;4936317;29;20050;-68
2022/04/08 07:20:44;;;;;;;6.22;3.83;;;;;;;;;;4936479;29;20048;-68
2022/04/08 07:23:14;;;;;;;7.40;4.18;;;;;;;;;;4936286;29;20499;-69
2022/04/08 07:25:48;;;;;;;6.30;4.38;;;;;;;;;;4936682;29;20402;-69
2022/04/08 07:28:18;;;;;;;6.20;4.25;;;;;;;;;;4936368;29;20067;-69
2022/04/08 07:31:11;;;;;;;5.38;4.20;;;;;;;;;;4936153;29;20091;-69
2022/04/08 07:33:38;;;;;;;8.35;4.65;;;;;;;;;;4930328;29;20090;-69
2022/04/08 07:36:07;;;;;;;7.88;4.00;;;;;;;;;;4936403;29;20126;-68
2022/04/08 07:38:37;;;;;;;7.75;4.50;;;;;;;;;;4935216;29;20388;-68
2022/04/08 07:41:08;;;;;;;9.80;4.90;;;;;;;;;;4936389;29;20122;-68
2022/04/08 07:43:37;;;;;;;7.55;4.90;;;;;;;;;;4936369;29;20055;-69
2022/04/08 07:46:05;;;;;;;10.35;4.70;;;;;;;;;;4935889;29;20040;-68
2022/04/08 07:48:38;;;;;;;8.40;4.78;;;;;;;;;;4936285;29;20086;-67
2022/04/08 07:51:07;;;;;;;7.10;4.90;;;;;;;;;;4936245;29;20055;-69
2022/04/08 07:53:38;;;;;;;7.32;5.05;;;;;;;;;;4950627;29;20491;-69
2022/04/08 07:56:10;;;;;;;8.43;4.93;;;;;;;;;;4936266;29;20040;-69
2022/04/08 07:58:38;;;;;;;10.80;4.75;;;;;;;;;;4936267;29;20110;-67
2022/04/08 08:01:08;;;;;;;8.27;4.93;;;;;;;;;;4935889;29;20128;-67
2022/04/08 08:03:42;;;;;;;9.88;5.80;;;;;;;;;;4935926;29;20050;-68
2022/04/08 08:06:11;;;;;;;6.07;5.03;;;;;;;;;;4936665;29;20071;-68
2022/04/08 08:08:41;;;;;;;6.47;5.15;;;;;;;;;;4936063;28;20391;-68
2022/04/08 08:11:13;;;;;;;7.53;4.22;;;;;;;;;;4935893;29;20495;-68
2022/04/08 08:13:59;;;;;;;5.97;4.03;;;;;;;;;;4938261;29;20047;-69
2022/04/08 08:16:27;;;;;;;6.93;4.03;;;;;;;;;;4939594;29;20126;-68
2022/04/08 08:19:00;;;;;;;7.57;4.35;;;;;;;;;;4939569;29;20047;-70
2022/04/08 08:21:33;;;;;;;8.48;4.20;;;;;;;;;;4954455;29;20570;-69
2022/04/08 08:24:03;;;;;;;7.10;4.78;;;;;;;;;;4954208;29;20056;-68
2022/04/08 08:26:31;;;;;;;6.30;4.78;;;;;;;;;;4939008;29;20538;-68
2022/04/08 08:29:02;;;;;;;8.55;4.38;;;;;;;;;;4940056;29;20035;-69
2022/04/08 08:31:39;;;;;;;9.32;4.50;;;;;;;;;;4939513;29;20075;-68
2022/04/08 08:34:12;;;;;;;7.82;4.53;;;;;;;;;;4939142;29;20107;-70
2022/04/08 08:37:05;;;;;;;7.55;5.45;;;;;;;;;;4939390;29;20418;-71
2022/04/08 08:39:33;;;;;;;5.57;4.60;;;;;;;;;;4940243;29;20067;-71
2022/04/08 08:42:03;;;;;;;8.63;4.55;;;;;;;;;;4939119;29;20047;-72
2022/04/08 08:44:33;;;;;;;8.85;6.47;;;;;;;;;;4938215;29;20047;-71
2022/04/08 08:47:01;;;;;;;8.57;4.07;;;;;;;;;;4938389;29;20068;-70
2022/04/08 08:49:31;;;;;;;5.80;4.20;;;;;;;;;;4939463;29;20044;-72
2022/04/08 08:52:01;;;;;;;6.03;3.97;;;;;;;;;;4939235;29;20052;-72
2022/04/08 08:54:28;;;;;;;6.05;4.00;;;;;;;;;;4951366;29;20046;-70
2022/04/08 08:57:04;;;;;;;5.75;3.70;;;;;;;;;;4958277;28;20040;-68
2022/04/08 08:59:36;;;;;;;9.20;4.05;;;;;;;;;;4957998;28;20106;-70
2022/04/08 09:02:04;;;;;;;7.63;3.60;;;;;;;;;;4957992;28;20047;-69
2022/04/08 09:04:31;;;;;;;5.55;3.70;;;;;;;;;;4957787;28;20059;-69
2022/04/08 09:06:59;;;;;;;4.15;3.22;;;;;;;;;;4957635;29;20043;-70
2022/04/08 09:09:33;;;;;;;6.45;3.55;;;;;;;;;;4956355;28;20043;-68
2022/04/08 09:12:13;;;;;;;8.77;4.03;;;;;;;;;;4956058;28;20046;-68
2022/04/08 09:14:51;;;;;;;6.28;3.63;;;;;;;;;;4957135;28;20100;-68
2022/04/08 09:17:19;;;;;;;7.43;3.45;;;;;;;;;;4957242;28;20035;-69
2022/04/08 09:19:48;;;;;;;7.95;3.60;;;;;;;;;;4957369;28;20043;-69
2022/04/08 09:22:16;;;;;;;5.75;3.83;;;;;;;;;;4957747;28;20058;-68
2022/04/08 09:24:48;;;;;;;3.63;3.00;;;;;;;;;;4957089;28;20498;-69
2022/04/08 09:27:18;;;;;;;8.18;3.95;;;;;;;;;;4957809;28;20098;-68
2022/04/08 09:30:11;;;;;;;7.35;3.80;;;;;;;;;;4957674;28;20035;-69
2022/04/08 09:32:41;;;;;;;5.05;3.92;;;;;;;;;;4957999;28;20047;-69
2022/04/08 09:35:17;;;;;;;7.63;4.72;;;;;;;;;;4957361;28;20574;-69
2022/04/08 09:37:57;;;;;;;7.88;5.20;;;;;;;;;;4957696;28;20044;-69
2022/04/08 09:40:24;;;;;;;10.05;4.95;;;;;;;;;;4957470;28;20039;-69
2022/04/08 09:42:57;;;;;;;6.20;3.92;;;;;;;;;;4957534;29;20570;-69
2022/04/08 09:45:32;;;;;;;5.85;3.63;;;;;;;;;;4957539;28;20450;-69
2022/04/08 09:48:02;;;;;;;7.05;3.50;;;;;;;;;;4957287;28;20058;-69
2022/04/08 09:50:34;;;;;;;9.23;4.18;;;;;;;;;;4957203;28;20051;-69
2022/04/08 09:53:27;;;;;;;4.53;3.60;;;;;;;;;;4958064;28;20047;-69
2022/04/08 09:55:55;;;;;;;5.57;3.20;;;;;;;;;;4957518;28;20036;-69
2022/04/08 09:58:30;;;;;;;5.60;3.30;;;;;;;;;;4957121;28;20495;-69
2022/04/08 10:00:58;;;;;;;8.38;2.90;;;;;;;;;;4957205;28;20130;-69
2022/04/08 10:03:32;;;;;;;6.75;3.53;;;;;;;;;;4957295;28;20387;-69
2022/04/08 10:06:01;;;;;;;4.88;3.20;;;;;;;;;;4955789;28;20509;-69
2022/04/08 10:08:33;;;;;;;3.80;2.85;;;;;;;;;;4956722;28;20047;-69
2022/04/08 10:11:26;;;;;;;4.47;3.08;;;;;;;;;;4957372;28;20101;-68
2022/04/08 10:13:59;;;;;;;8.00;3.50;;;;;;;;;;4957081;28;20074;-69
2022/04/08 10:16:28;;;;;;;4.80;3.50;;;;;;;;;;4956422;28;20099;-69
2022/04/08 10:19:04;;;;;;;8.80;4.20;;;;;;;;;;4956598;28;20039;-69
2022/04/08 10:21:43;;;;;;;4.43;3.10;;;;;;;;;;4957122;28;20118;-69
2022/04/08 10:24:13;;;;;;;5.53;3.00;;;;;;;;;;4956731;29;20098;-69
2022/04/08 10:26:56;;;;;;;5.95;3.17;;;;;;;;;;4956392;28;20498;-69
2022/04/08 10:29:24;;;;;;;4.30;3.10;;;;;;;;;;4956776;28;20051;-68
2022/04/08 10:31:58;;;;;;;10.77;6.53;;;;;;;;;;4956331;28;20043;-69
2022/04/08 10:34:26;;;;;;;6.82;3.13;;;;;;;;;;4955993;28;20471;-69
2022/04/08 10:37:24;;;;;;;8.50;3.85;;;;;;;;;;4955620;28;20047;-69
2022/04/08 10:40:05;;;;;;;6.20;3.28;;;;;;;;;;4956655;28;20143;-69
2022/04/08 10:42:34;;;;;;;3.78;2.67;;;;;;;;;;4956326;28;20134;-69
2022/04/08 10:45:20;;;;;;;7.75;3.28;;;;;;;;;;4956102;28;20047;-69
2022/04/08 10:47:50;;;;;;;5.90;2.90;;;;;;;;;;4956427;28;20102;-69
2022/04/08 10:50:27;;;;;;;3.78;2.85;;;;;;;;;;4956112;28;20047;-69
2022/04/08 10:53:09;;;;;;;6.95;3.40;;;;;;;;;;4956370;28;20047;-68
2022/04/08 10:55:47;;;;;;;4.63;3.30;;;;;;;;;;4956381;28;20114;-69
2022/04/08 10:58:37;;;;;;;7.93;3.60;;;;;;;;;;4956021;28;20094;-69
2022/04/08 11:01:18;;;;;;;5.65;3.10;;;;;;;;;;4949046;29;20070;-68
2022/04/08 11:04:03;;;;;;;8.00;2.90;;;;;;;;;;4955815;28;20035;-68
2022/04/08 11:06:36;;;;;;;4.00;3.10;;;;;;;;;;4955915;28;20054;-68
2022/04/08 11:09:12;;;;;;;8.15;3.08;;;;;;;;;;4954576;28;20411;-69
2022/04/08 11:11:43;;;;;;;5.18;2.55;;;;;;;;;;4955883;28;20079;-68
2022/04/08 11:14:11;;;;;;;20.40;4.13;;;;;;;;;;4955744;28;20051;-68
2022/04/08 11:16:39;;;;;;;7.55;3.17;;;;;;;;;;4956028;28;20066;-68
2022/04/08 11:19:16;;;;;;;5.68;2.90;;;;;;;;;;4955464;28;20055;-68
2022/04/08 11:21:44;;;;;;;5.68;3.00;;;;;;;;;;4955952;28;20043;-68
2022/04/08 11:24:13;;;;;;;5.90;3.50;;;;;;;;;;4955640;28;20035;-68
2022/04/08 11:26:50;;;;;;;6.30;3.30;;;;;;;;;;4955292;28;20043;-69
2022/04/08 11:29:20;;;;;;;4.72;3.20;;;;;;;;;;4955642;28;20061;-68
2022/04/08 11:32:05;;;;;;;4.68;2.88;;;;;;;;;;4955615;28;20047;-68
2022/04/08 11:34:33;;;;;;;6.28;2.90;;;;;;;;;;4955212;28;20059;-68
2022/04/08 11:37:01;;;;;;;4.80;3.00;;;;;;;;;;4955546;28;20415;-69
2022/04/08 11:39:32;;;;;;;6.47;3.40;;;;;;;;;;4955535;28;20153;-68
2022/04/08 11:42:03;;;;;;;4.03;3.03;;;;;;;;;;4955673;28;20050;-69
2022/04/08 11:44:35;;;;;;;5.05;2.85;;;;;;;;;;4955459;28;20135;-71
2022/04/08 11:47:09;;;;;;;5.10;2.95;;;;;;;;;;4955665;28;20447;-69
2022/04/08 11:49:38;;;;;;;8.63;3.22;;;;;;;;;;4955502;28;20039;-69
2022/04/08 11:52:08;;;;;;;6.65;3.08;;;;;;;;;;4955173;28;20039;-68
2022/04/08 11:54:42;;;;;;;4.47;2.80;;;;;;;;;;4955543;28;20094;-68
2022/04/08 11:57:33;;;;;;;9.48;3.20;;;;;;;;;;4955248;28;20122;-69
2022/04/08 12:00:02;;;;;;;16.70;3.58;;;;;;;;;;4955426;28;20098;-68
2022/04/08 12:02:41;;;;;;;4.05;3.15;;;;;;;;;;4955370;28;20048;-69
2022/04/08 12:05:18;;;;;;;6.05;2.88;;;;;;;;;;4955321;28;20066;-69
2022/04/08 12:07:53;;;;;;;6.75;3.75;;;;;;;;;;4955364;28;20051;-69
2022/04/08 12:10:27;;;;;;;5.88;3.05;;;;;;;;;;4954828;28;20054;-69
2022/04/08 12:13:23;;;;;;;5.23;2.77;;;;;;;;;;4935923;29;20046;-69
2022/04/08 12:15:55;;;;;;;7.05;3.50;;;;;;;;;;4936103;29;20088;-69
2022/04/08 12:18:34;;;;;;;6.78;3.72;;;;;;;;;;4936262;29;20448;-69
2022/04/08 12:21:06;;;;;;;6.13;3.30;;;;;;;;;;4936040;29;20051;-69
2022/04/08 12:23:35;;;;;;;7.63;3.83;;;;;;;;;;4935594;29;20120;-69
2022/04/08 12:26:08;;;;;;;9.13;5.53;;;;;;;;;;4935861;29;20052;-69
2022/04/08 12:28:37;;;;;;;29.45;21.88;;;;;;;;;;4935887;29;20036;-69
2022/04/08 12:31:12;;;;;;;5.53;3.70;;;;;;;;;;4935753;29;20062;-69
2022/04/08 12:34:06;;;;;;;5.07;2.97;;;;;;;;;;4933806;29;20119;-69
2022/04/08 12:36:36;;;;;;;4.97;3.00;;;;;;;;;;4935599;29;20507;-69
2022/04/08 12:39:11;;;;;;;12.32;3.58;;;;;;;;;;4934988;29;20090;-69
2022/04/08 12:41:41;;;;;;;5.10;3.55;;;;;;;;;;4935598;29;20127;-69
2022/04/08 12:44:11;;;;;;;5.82;2.88;;;;;;;;;;4935835;29;20043;-69
2022/04/08 12:46:39;;;;;;;6.82;2.72;;;;;;;;;;4935754;29;20046;-69
2022/04/08 12:49:07;;;;;;;5.32;3.30;;;;;;;;;;4935646;29;20048;-69
2022/04/08 12:51:39;;;;;;;6.18;2.85;;;;;;;;;;4935817;29;20047;-69
2022/04/08 12:54:08;;;;;;;5.65;2.92;;;;;;;;;;4935734;29;20039;-69
2022/04/08 12:56:38;;;;;;;4.60;3.10;;;;;;;;;;4935548;29;20414;-69
2022/04/08 12:59:09;;;;;;;4.47;3.13;;;;;;;;;;4936157;29;20550;-69
2022/04/08 13:01:37;;;;;;;6.88;2.58;;;;;;;;;;4939476;29;20040;-69
2022/04/08 13:04:07;;;;;;;6.82;3.25;;;;;;;;;;4938951;29;20130;-69
2022/04/08 13:06:41;;;;;;;6.47;2.95;;;;;;;;;;4939156;29;20463;-68
2022/04/08 13:09:09;;;;;;;4.75;3.00;;;;;;;;;;4939129;29;20047;-68
2022/04/08 13:11:39;;;;;;;7.95;2.92;;;;;;;;;;4938812;29;20047;-68
2022/04/08 13:14:10;;;;;;;5.88;2.63;;;;;;;;;;4938920;29;20047;-68
2022/04/08 13:16:37;;;;;;;6.78;2.78;;;;;;;;;;4938994;29;20078;-68
2022/04/08 13:19:10;;;;;;;5.32;2.40;;;;;;;;;;4939110;29;20155;-72
2022/04/08 13:21:39;;;;;;;5.40;2.78;;;;;;;;;;4938852;29;20054;-73
2022/04/08 13:24:07;;;;;;;6.28;2.70;;;;;;;;;;4938301;29;20035;-73
2022/04/08 13:26:39;;;;;;;5.60;2.70;;;;;;;;;;4938811;29;20040;-74
2022/04/08 13:29:10;;;;;;;8.55;2.83;;;;;;;;;;4938840;29;20447;-73
2022/04/08 13:31:39;;;;;;;6.30;2.80;;;;;;;;;;4938643;29;20095;-73
2022/04/08 13:34:07;;;;;;;7.05;3.10;;;;;;;;;;4943273;29;20478;-74
2022/04/08 13:36:57;;;;;;;4.85;2.60;;;;;;;;;;4957368;28;20122;-73
2022/04/08 13:39:24;;;;;;;4.88;2.50;;;;;;;;;;4957348;28;20116;-73
2022/04/08 13:41:53;;;;;;;4.05;2.55;;;;;;;;;;4957264;28;20042;-72
2022/04/08 13:44:23;;;;;;;5.20;2.60;;;;;;;;;;4957156;28;20047;-72
2022/04/08 13:46:53;;;;;;;5.07;2.78;;;;;;;;;;4957217;28;20046;-68
2022/04/08 13:49:23;;;;;;;8.50;2.90;;;;;;;;;;4957358;28;20058;-68
2022/04/08 13:51:52;;;;;;;4.82;2.85;;;;;;;;;;4957375;28;20043;-67
2022/04/08 13:54:21;;;;;;;6.38;2.75;;;;;;;;;;4957214;28;20545;-70
2022/04/08 13:56:50;;;;;;;6.38;2.80;;;;;;;;;;4957198;28;20051;-68
2022/04/08 13:59:21;;;;;;;5.38;2.50;;;;;;;;;;4957597;28;20451;-68
2022/04/08 14:01:50;;;;;;;5.68;2.65;;;;;;;;;;4957334;28;20122;-68
2022/04/08 14:04:18;;;;;;;4.53;2.80;;;;;;;;;;4955681;28;20502;-67
2022/04/08 14:06:46;;;;;;;7.90;2.95;;;;;;;;;;4954593;28;20403;-67
2022/04/08 14:09:14;;;;;;;3.83;2.58;;;;;;;;;;4956557;28;20067;-67
2022/04/08 14:11:46;;;;;;;7.72;3.10;;;;;;;;;;4956683;28;20043;-67
2022/04/08 14:14:22;;;;;;;4.15;2.63;;;;;;;;;;4956837;28;20134;-67
2022/04/08 14:16:49;;;;;;;;;;;;;;;;;;4957136;28;20056;-67
2022/04/08 14:19:19;;;;;;;5.65;2.78;;;;;;;;;;4957282;28;19922;-67
2022/04/08 14:21:48;;;;;;;5.90;2.40;;;;;;;;;;4956869;28;20054;-68
2022/04/08 14:24:24;;;;;;;9.73;2.67;;;;;;;;;;4956622;28;20047;-67
2022/04/08 14:26:52;;;;;;;;;;;;;;;;;;4956818;28;20058;-67
2022/04/08 14:29:20;;;;;;;7.43;2.90;;;;;;;;;;4956403;28;19922;-67
2022/04/08 14:31:52;;;;;;;8.50;2.70;;;;;;;;;;4956962;28;20227;-67
2022/04/08 14:34:20;;;;;;;4.15;2.83;;;;;;;;;;4956201;28;20051;-67
2022/04/08 14:36:50;;;;;;;4.97;2.83;;;;;;;;;;4956502;28;20051;-67
2022/04/08 14:39:24;;;;;;;4.55;2.40;;;;;;;;;;4956369;28;20039;-67
2022/04/08 14:41:52;;;;;;;6.57;2.42;;;;;;;;;;4956531;28;20446;-67
2022/04/08 14:44:20;;;;;;;6.40;3.08;;;;;;;;;;4956329;28;20039;-67
2022/04/08 14:46:53;;;;;;;5.82;3.00;;;;;;;;;;4956137;28;20055;-67
2022/04/08 14:49:20;;;;;;;3.88;2.80;;;;;;;;;;4956303;28;20047;-67
2022/04/08 14:51:52;;;;;;;6.35;2.63;;;;;;;;;;4956371;28;20043;-67
2022/04/08 14:54:24;;;;;;;6.80;2.90;;;;;;;;;;4954966;29;20050;-69
2022/04/08 14:56:53;;;;;;;5.05;3.05;;;;;;;;;;4955904;28;20090;-69
2022/04/08 14:59:22;;;;;;;6.93;2.97;;;;;;;;;;4955807;28;20036;-67
2022/04/08 15:01:55;;;;;;;4.80;3.17;;;;;;;;;;4955662;28;20063;-67
2022/04/08 15:04:37;;;;;;;7.50;3.03;;;;;;;;;;4956453;28;20051;-69
2022/04/08 15:07:31;;;;;;;5.90;2.83;;;;;;;;;;4955535;28;20505;-67
2022/04/08 15:10:01;;;;;;;10.68;3.40;;;;;;;;;;4955394;28;20074;-69